createdAt,value
2023-04-25T00:02:23.730Z,99626.91
2023-04-25T00:07:27.287Z,99612.84
2023-04-25T00:12:30.524Z,99620.59
2023-04-25T00:17:35.781Z,99630.22
2023-04-25T00:22:39.217Z,99623.97
2023-04-25T00:27:42.835Z,99616.63
2023-04-25T00:32:47.103Z,99611.69
2023-04-25T00:37:50.567Z,99614.59
2023-04-25T00:42:55.016Z,99617.75
2023-04-25T00:47:59.361Z,99622.47
2023-04-25T00:53:02.775Z,99613.94
2023-04-25T00:58:05.799Z,99604.47
2023-04-25T01:03:11.191Z,99606.38
2023-04-25T01:08:14.844Z,99612.19
2023-04-25T01:13:17.648Z,99614.78
2023-04-25T01:18:21.950Z,99615.50
2023-04-25T01:23:26.548Z,99623.91
2023-04-25T01:28:29.938Z,99616.72
2023-04-25T01:33:32.798Z,99624.03
2023-04-25T01:38:37.131Z,99622.41
2023-04-25T01:43:40.321Z,99620.41
2023-04-25T01:48:43.157Z,99623.06
2023-04-25T01:53:47.988Z,99627.09
2023-04-25T01:58:51.256Z,99636.88
2023-04-25T02:03:56.962Z,99631.47
2023-04-25T02:09:10.853Z,99638.28
2023-04-25T02:14:18.861Z,99648.63
2023-04-25T02:19:41.881Z,99650.94
2023-04-25T02:24:46.076Z,99664.19
2023-04-25T02:29:48.935Z,99658.44
2023-04-25T02:34:51.733Z,99663.75
2023-04-25T02:39:55.981Z,99659.16
2023-04-25T02:44:58.922Z,99664.47
2023-04-25T02:50:03.233Z,99670.59
2023-04-25T02:55:08.422Z,99667.03
2023-04-25T03:00:15.252Z,99670.41
2023-04-25T03:05:18.731Z,99682.66
2023-04-25T03:10:22.933Z,99678.09
2023-04-25T03:15:26.298Z,99686.22
2023-04-25T03:20:29.379Z,99685.38
2023-04-25T03:25:33.572Z,99688.56
2023-04-25T03:30:36.350Z,99693.78
2023-04-25T03:35:39.647Z,99694.00
2023-04-25T03:40:44.726Z,99710.81
2023-04-25T03:45:55.909Z,99711.91
2023-04-25T03:51:00.241Z,99710.63
2023-04-25T03:56:04.787Z,99711.06
2023-04-25T04:01:10.616Z,99722.41
2023-04-25T04:06:15.931Z,99730.66
2023-04-25T04:11:25.050Z,99742.41
2023-04-25T04:16:28.215Z,99747.44
2023-04-25T04:21:31.252Z,99753.28
2023-04-25T04:26:35.758Z,99758.97
2023-04-25T04:32:05.805Z,99766.59
2023-04-25T04:37:10.704Z,99773.06
2023-04-25T04:42:15.015Z,99776.41
2023-04-25T04:47:31.847Z,99790.69
2023-04-25T04:52:51.858Z,99790.91
2023-04-25T04:58:22.218Z,99803.72
2023-04-25T05:03:34.553Z,99801.81
2023-04-25T05:09:04.368Z,99814.44
2023-04-25T05:14:21.278Z,99815.41
2023-04-25T05:19:59.401Z,99824.91
2023-04-25T05:25:31.534Z,99826.22
2023-04-25T05:31:05.477Z,99828.13
2023-04-25T05:36:20.602Z,99845.22
2023-04-25T05:41:24.033Z,99835.84
2023-04-25T05:46:46.545Z,99830.81
2023-04-25T05:51:49.284Z,99844.25
2023-04-25T05:57:05.064Z,99860.19
2023-04-25T06:02:09.989Z,99854.47
2023-04-25T06:07:15.007Z,99853.84
2023-04-25T06:12:17.814Z,99875.00
2023-04-25T06:17:22.758Z,99871.66
2023-04-25T06:22:27.272Z,99873.25
2023-04-25T06:27:30.144Z,99885.13
2023-04-25T06:32:35.338Z,99884.03
2023-04-25T06:37:38.264Z,99892.84
2023-04-25T06:42:41.102Z,99886.78
2023-04-25T06:48:23.726Z,99894.59
2023-04-25T06:53:27.446Z,99890.22
2023-04-25T06:58:35.785Z,99915.38
2023-04-25T07:04:03.162Z,99914.03
2023-04-25T07:09:09.731Z,99922.47
2023-04-25T07:14:12.671Z,99916.34
2023-04-25T07:19:19.013Z,99925.53
2023-04-25T07:24:21.990Z,99926.88
2023-04-25T07:29:26.766Z,99931.16
2023-04-25T07:34:31.335Z,99932.47
2023-04-25T07:39:34.727Z,99941.94
2023-04-25T07:44:39.718Z,99944.94
2023-04-25T07:49:46.174Z,99947.34
2023-04-25T07:54:49.508Z,99951.88
2023-04-25T07:59:57.698Z,99939.19
2023-04-25T08:05:03.753Z,99959.97
2023-04-25T08:10:08.307Z,99954.41
2023-04-25T08:15:11.948Z,99956.44
2023-04-25T08:20:18.068Z,99961.28
2023-04-25T08:25:22.324Z,99966.25
2023-04-25T08:30:25.425Z,99980.44
2023-04-25T08:35:30.258Z,99988.63
2023-04-25T08:40:39.428Z,99994.84
2023-04-25T08:45:47.086Z,99995.88
2023-04-25T08:56:21.309Z,100011.25
2023-04-25T09:01:24.665Z,100024.81
2023-04-25T09:06:32.867Z,100022.19
2023-04-25T09:11:36.855Z,100030.91
2023-04-25T09:17:01.291Z,100040.19
2023-04-25T09:22:26.276Z,100046.88
2023-04-25T09:27:29.436Z,100053.94
2023-04-25T09:32:49.815Z,100047.31
2023-04-25T09:37:54.268Z,100045.53
2023-04-25T09:43:21.840Z,100068.03
2023-04-25T09:48:28.338Z,100072.09
2023-04-25T09:53:36.317Z,100077.78
2023-04-25T09:58:58.409Z,100087.72
2023-04-25T10:04:03.583Z,100092.69
2023-04-25T10:09:36.050Z,100093.59
2023-04-25T10:14:38.911Z,100096.34
2023-04-25T10:19:41.980Z,100098.19
2023-04-25T10:24:48.344Z,100081.06
2023-04-25T10:30:03.506Z,100113.16
2023-04-25T10:35:14.250Z,100104.44
2023-04-25T10:40:24.069Z,100109.31
2023-04-25T10:45:27.948Z,100108.31
2023-04-25T10:50:39.946Z,100100.34
2023-04-25T10:55:53.505Z,100109.56
2023-04-25T11:00:57.876Z,100111.22
2023-04-25T11:06:03.047Z,100116.81
2023-04-25T11:11:07.501Z,100125.34
2023-04-25T11:16:12.986Z,100121.03
2023-04-25T11:21:16.604Z,100127.13
2023-04-25T11:26:21.289Z,100139.19
2023-04-25T11:31:24.226Z,100140.13
2023-04-25T11:36:27.956Z,100131.84
2023-04-25T11:41:32.740Z,100139.69
2023-04-25T11:46:36.637Z,100145.97
2023-04-25T11:51:44.162Z,100146.06
2023-04-25T11:56:48.517Z,100160.47
2023-04-25T12:01:52.337Z,100162.25
2023-04-25T12:06:57.015Z,100168.41
2023-04-25T12:12:04.085Z,100173.59
2023-04-25T12:17:09.172Z,100171.25
2023-04-25T12:22:23.593Z,100177.78
2023-04-25T12:27:28.229Z,100151.59
2023-04-25T12:32:31.718Z,100160.66
2023-04-25T12:37:34.564Z,100161.56
2023-04-25T12:42:38.718Z,100154.13
2023-04-25T12:47:41.534Z,100156.81
2023-04-25T12:52:44.314Z,100154.66
2023-04-25T12:57:48.711Z,100153.03
2023-04-25T13:02:51.682Z,100157.19
2023-04-25T13:07:54.615Z,100155.03
2023-04-25T13:12:59.063Z,100163.81
2023-04-25T13:18:02.052Z,100162.19
2023-04-25T13:23:04.894Z,100179.00
2023-04-25T13:28:09.273Z,100207.31
2023-04-25T13:33:26.149Z,100233.38
2023-04-25T13:38:29.003Z,100239.41
2023-04-25T13:43:34.887Z,100235.16
2023-04-25T13:48:37.911Z,100213.28
2023-04-25T13:53:40.742Z,100213.16
2023-04-25T13:58:44.944Z,100206.72
2023-04-25T14:03:47.825Z,100194.94
2023-04-25T14:08:51.014Z,100202.13
2023-04-25T14:13:55.122Z,100195.44
2023-04-25T14:18:58.875Z,100194.44
2023-04-25T14:24:01.773Z,100191.16
2023-04-25T14:29:07.235Z,100194.31
2023-04-25T14:34:10.169Z,100192.41
2023-04-25T14:39:13.463Z,100205.75
2023-04-25T14:44:17.739Z,100215.56
2023-04-25T14:49:21.016Z,100206.66
2023-04-25T14:54:23.889Z,100215.19
2023-04-25T14:59:28.056Z,100217.66
2023-04-25T15:04:30.972Z,100219.28
2023-04-25T15:09:34.275Z,100224.56
2023-04-25T15:14:38.563Z,100248.66
2023-04-25T15:19:41.335Z,100254.56
2023-04-25T15:24:44.136Z,100246.91
2023-04-25T15:29:48.288Z,100250.22
2023-04-25T15:34:51.924Z,100259.44
2023-04-25T15:40:04.810Z,100259.97
2023-04-25T15:45:11.280Z,100245.25
2023-04-25T15:50:15.969Z,100256.72
2023-04-25T15:55:21.126Z,100242.22
2023-04-25T16:00:25.355Z,100255.53
2023-04-25T16:05:28.373Z,100268.34
2023-04-25T16:10:31.235Z,100280.09
2023-04-25T16:15:35.796Z,100277.78
2023-04-25T16:20:38.734Z,100298.28
2023-04-25T16:25:43.014Z,100302.63
2023-04-25T16:30:47.388Z,100289.50
2023-04-25T16:35:52.419Z,100296.75
2023-04-25T16:40:55.354Z,100297.50
2023-04-25T16:45:59.490Z,100300.59
2023-04-25T16:51:02.298Z,100301.19
2023-04-25T16:56:05.477Z,100310.00
2023-04-25T17:01:09.670Z,100299.13
2023-04-25T17:06:12.482Z,100301.28
2023-04-25T17:11:15.343Z,100308.34
2023-04-25T17:16:23.404Z,100308.50
2023-04-25T17:21:26.198Z,100302.50
2023-04-25T17:26:29.145Z,100304.84
2023-04-25T17:31:33.529Z,100319.41
2023-04-25T17:36:36.417Z,100321.50
2023-04-25T17:41:39.268Z,100324.75
2023-04-25T17:46:43.652Z,100331.88
2023-04-25T17:51:46.560Z,100329.66
2023-04-25T17:56:49.605Z,100337.41
2023-04-25T18:01:53.822Z,100355.69
2023-04-25T18:06:56.753Z,100360.22
2023-04-25T18:12:00.153Z,100360.72
2023-04-25T18:17:07.100Z,100357.47
2023-04-25T18:22:09.944Z,100360.09
2023-04-25T18:27:12.744Z,100370.94
2023-04-25T18:32:17.099Z,100379.81
2023-04-25T18:37:20.969Z,100380.34
2023-04-25T18:42:23.741Z,100396.59
2023-04-25T18:47:27.955Z,100400.66
2023-04-25T18:52:30.821Z,100401.78
2023-04-25T18:57:34.408Z,100417.47
2023-04-25T19:02:38.851Z,100422.63
2023-04-25T19:07:42.273Z,100427.50
2023-04-25T19:12:44.952Z,100431.59
2023-04-25T19:17:49.160Z,100442.69
2023-04-25T19:22:53.216Z,100433.94
2023-04-25T19:27:57.296Z,100440.88
2023-04-25T19:33:01.591Z,100442.31
2023-04-25T19:38:04.604Z,100446.38
2023-04-25T19:43:07.419Z,100444.78
2023-04-25T19:48:12.351Z,100453.59
2023-04-25T19:53:15.052Z,100460.81
2023-04-25T19:58:17.735Z,100458.41
2023-04-25T20:03:22.074Z,100465.69
2023-04-25T20:08:26.143Z,100473.34
2023-04-25T20:13:29.183Z,100468.28
2023-04-25T20:18:33.243Z,100467.53
2023-04-25T20:23:36.032Z,100473.88
2023-04-25T20:28:38.849Z,100480.91
2023-04-25T20:33:43.746Z,100480.13
2023-04-25T20:38:46.831Z,100489.91
2023-04-25T20:43:50.107Z,100491.97
2023-04-25T20:48:54.524Z,100490.66
2023-04-25T20:53:58.111Z,100495.75
2023-04-25T20:59:00.858Z,100493.47
2023-04-25T21:04:06.271Z,100492.03
2023-04-25T21:09:10.031Z,100489.88
2023-04-25T21:14:12.921Z,100492.41
2023-04-25T21:19:17.507Z,100490.75
2023-04-25T21:24:21.758Z,100492.69
2023-04-25T21:29:24.521Z,100498.38
2023-04-25T21:34:28.744Z,100498.09
2023-04-25T21:39:31.603Z,100501.38
2023-04-25T21:44:34.379Z,100506.47
2023-04-25T21:49:38.496Z,100504.19
2023-04-25T21:54:41.294Z,100493.81
2023-04-25T21:59:44.355Z,100499.38
2023-04-25T22:04:49.041Z,100498.19
2023-04-25T22:09:55.505Z,100504.13
2023-04-25T22:14:58.646Z,100502.63
2023-04-25T22:20:09.631Z,100516.19
2023-04-25T22:25:12.971Z,100521.28
2023-04-25T22:30:16.307Z,100523.34
2023-04-25T22:35:20.467Z,100526.00
2023-04-25T22:40:23.269Z,100529.69
2023-04-25T22:45:26.119Z,100533.50
2023-04-25T22:50:30.368Z,100538.56
2023-04-25T22:55:33.144Z,100539.34
2023-04-25T23:00:35.946Z,100542.69
2023-04-25T23:05:40.145Z,100548.19
2023-04-25T23:10:42.924Z,100552.72
2023-04-25T23:15:45.678Z,100555.25
2023-04-25T23:20:49.805Z,100554.09
2023-04-25T23:25:53.250Z,100558.69
2023-04-25T23:30:56.156Z,100568.38
2023-04-25T23:36:00.453Z,100565.97
2023-04-25T23:41:03.272Z,100558.91
2023-04-25T23:46:06.317Z,100566.06
2023-04-25T23:51:10.561Z,100572.03
2023-04-25T23:56:13.343Z,100569.94
